AAPL   321.52 (-0.10%)
FB   229.13 (-1.22%)
AMZN   2,465.19 (-0.24%)
NVDA   350.55 (-0.48%)
BABA   213.48 (+3.35%)
GE   7.03 (+3.99%)
TSLA   893.59 (-0.50%)
AMD   52.79 (-1.58%)
ACB   14.50 (+2.84%)
F   5.89 (+0.86%)
GILD   73.32 (-2.45%)
NFLX   424.20 (-0.40%)
BAC   24.83 (+1.18%)
BA   154.03 (+1.74%)
AAPL   321.52 (-0.10%)
FB   229.13 (-1.22%)
AMZN   2,465.19 (-0.24%)
NVDA   350.55 (-0.48%)
BABA   213.48 (+3.35%)
GE   7.03 (+3.99%)
TSLA   893.59 (-0.50%)
AMD   52.79 (-1.58%)
ACB   14.50 (+2.84%)
F   5.89 (+0.86%)
GILD   73.32 (-2.45%)
NFLX   424.20 (-0.40%)
BAC   24.83 (+1.18%)
BA   154.03 (+1.74%)
AAPL   321.52 (-0.10%)
FB   229.13 (-1.22%)
AMZN   2,465.19 (-0.24%)
NVDA   350.55 (-0.48%)
BABA   213.48 (+3.35%)
GE   7.03 (+3.99%)
TSLA   893.59 (-0.50%)
AMD   52.79 (-1.58%)
ACB   14.50 (+2.84%)
F   5.89 (+0.86%)
GILD   73.32 (-2.45%)
NFLX   424.20 (-0.40%)
BAC   24.83 (+1.18%)
BA   154.03 (+1.74%)
AAPL   321.52 (-0.10%)
FB   229.13 (-1.22%)
AMZN   2,465.19 (-0.24%)
NVDA   350.55 (-0.48%)
BABA   213.48 (+3.35%)
GE   7.03 (+3.99%)
TSLA   893.59 (-0.50%)
AMD   52.79 (-1.58%)
ACB   14.50 (+2.84%)
F   5.89 (+0.86%)
GILD   73.32 (-2.45%)
NFLX   424.20 (-0.40%)
BAC   24.83 (+1.18%)
BA   154.03 (+1.74%)
Log in

NYSE:KRPKimbell Royalty Partners Institutional Ownership

$7.23
+0.28 (+4.03 %)
(As of 06/2/2020 02:16 PM ET)
Add
Compare
Today's Range
$7.11
Now: $7.23
$7.28
50-Day Range
$5.37
MA: $6.59
$8.06
52-Week Range
$3.51
Now: $7.23
$17.72
Volume859 shs
Average Volume151,608 shs
Market Capitalization$432.28 million
P/E RatioN/A
Dividend Yield9.91%
Beta2.24

Institutional Ownership

Institutional Ownership Changes (13F Filings) for Kimbell Royalty Partners (NYSE:KRP)

Institutional Ownership Percentage: 21.26%

Institutional Buying and Selling by Quarter


Kimbell Royalty Partners (NYSE KRP) Institutional Buying and Selling

Reporting DateHedge FundShares HeldMarket Value% of PortfolioQuarterly Change in SharesOwnership in Company
5/18/2020Soros Fund Management LLC200,000$1.17M0.1%+100.0%0.335%
5/18/2020Advisor Group Holdings Inc.5,000$29K0.0%N/A0.008%
5/18/2020Pin Oak Investment Advisors Inc.201,400$1.17M1.2%+22.4%0.337%
5/15/2020Kohlberg Kravis Roberts & Co. L.P.4,163,559$24.27M0.2%-15.3%7.700%
5/15/2020Invesco Ltd.135,016$0.79M0.0%+107.3%0.250%
5/15/2020Morgan Stanley49,044$0.29M0.0%-47.4%0.091%
5/15/2020Alyeska Investment Group L.P.687,900$4.01M0.1%N/A1.272%
5/14/2020Wells Fargo & Company MN51,172$0.30M0.0%+17.2%0.095%
5/14/2020Harrell Investment Partners LLC24,203$0.14M0.1%N/A0.045%
5/14/2020Wellington Management Group LLP338,602$1.97M0.0%-37.4%0.626%
5/13/2020King Luther Capital Management Corp90,550$0.53M0.0%+72.3%0.167%
5/13/2020Horizon Kinetics Asset Management LLC260,460$1.52M0.1%+5.6%0.482%
5/12/2020JPMorgan Chase & Co.19,000$0.11M0.0%-19.0%0.035%
5/8/2020Oppenheimer & Co. Inc.77,839$0.45M0.0%-53.6%0.144%
5/6/2020Stockman Wealth Management Inc.11,500$67K0.0%N/A0.021%
5/1/2020UBS Group AG40,414$0.24M0.0%+46.6%0.075%
4/30/2020Abacus Planning Group Inc.22,000$0.13M0.1%+37.5%0.041%
4/29/2020Steward Partners Investment Advisory LLC31,500$0.18M0.0%+83.7%0.058%
4/28/2020Doliver Advisors LP14,443$95K0.0%N/A0.027%
4/23/2020TSP Capital Management Group LLC224,566$1.31M0.7%+4.7%0.415%
4/22/2020Concorde Asset Management LLC15,000$87K0.1%N/A0.028%
4/21/2020Raymond James & Associates275,532$1.61M0.0%-19.1%0.510%
4/21/2020Raymond James Financial Services Advisors Inc.78,007$0.46M0.0%+139.8%0.144%
2/17/2020Ladenburg Thalmann Financial Services Inc.12,700$0.22M0.0%-11.2%0.023%
2/14/2020B. Riley Wealth Management Inc.17,481$0.30M0.0%N/A0.074%
2/14/2020First Republic Investment Management Inc.48,826$0.83M0.0%+53.6%0.208%
2/14/2020Bank of America Corp DE25,000$0.43M0.0%+61.3%0.106%
2/14/2020Marshall Wace LLP29,665$0.50M0.0%N/A0.126%
2/14/2020Marshall Wace North America L.P.53,751$0.91M0.0%N/A0.229%
2/14/2020UBS Group AG27,575$0.47M0.0%+105.3%0.117%
2/13/2020Blair William & Co. IL193,336$3.29M0.0%+37.7%0.822%
2/13/2020Renaissance Technologies LLC100,594$1.71M0.0%N/A0.428%
2/12/2020Raymond James & Associates340,403$5.79M0.0%+5.8%1.447%
2/12/2020Raymond James Financial Services Advisors Inc.32,526$0.55M0.0%+15.8%0.138%
2/12/2020Meridian Wealth Advisors LLC12,066$0.21M0.1%-42.6%0.051%
2/11/2020Pin Oak Investment Advisors Inc.164,580$2.80M2.2%+5.2%0.700%
2/7/2020FMR LLC1,415,432$24.06M0.0%+2.8%6.018%
2/7/2020Tower Research Capital LLC TRC2,283$39K0.0%N/A0.010%
2/7/2020Oppenheimer & Co. Inc.167,703$2.85M0.1%+36.2%0.713%
2/6/2020Arrow Investment Advisors LLC30,383$0.52M0.3%+11.2%0.129%
2/6/2020Guild Investment Management Inc.10,000$0.17M0.2%N/A0.043%
1/27/2020California Public Employees Retirement System11,316$0.19M0.0%N/A0.048%
1/17/2020TSP Capital Management Group LLC214,566$3.65M1.6%+105.0%0.912%
11/27/2019Millennium Management LLC55,071$0.81M0.0%-80.7%0.234%
11/27/2019Soros Fund Management LLC320,080$4.71M0.1%+5.0%1.361%
11/27/2019Pin Oak Investment Advisors Inc.156,505$2.30M1.9%+86.5%0.665%
11/5/2019Arrow Investment Advisors LLC27,318$0.40M0.2%+23.5%0.116%
11/4/2019Kayne Anderson Capital Advisors LP315,257$4.64M0.1%-56.0%1.342%
11/1/2019Abacus Planning Group Inc.16,000$0.24M0.1%N/A0.068%
10/31/2019Oppenheimer & Co. Inc.123,103$1.81M0.0%+17.8%0.524%
10/30/2019Steward Partners Investment Advisory LLC17,000$0.25M0.0%+21.0%0.072%
10/24/2019Raymond James Trust N.A.11,793$0.17M0.0%+14.0%0.050%
10/18/2019Stephens Inc. AR11,500$0.17M0.0%-8.0%0.049%
8/17/2019Needham Investment Management LLC10,000$0.16M0.1%N/A0.043%
8/17/2019Royal Bank of Canada52,293$0.84M0.0%+13.7%0.223%
8/17/2019Ladenburg Thalmann Financial Services Inc.12,050$0.20M0.0%N/A0.051%
8/15/2019Price T Rowe Associates Inc. MD825,571$13.33M0.0%N/A3.515%
8/14/2019Yorktown Energy Partners X L.P.816,293$13.18M12.1%N/A3.474%
8/14/2019Putnam Investments LLC183,231$2.96M0.0%-18.6%0.793%
8/14/2019Invesco Ltd.66,866$1.08M0.0%+45.3%0.290%
8/10/2019TSP Capital Management Group LLC41,650$0.67M0.3%N/A0.180%
8/10/2019Oppenheimer & Co. Inc.104,503$1.69M0.0%N/A0.452%
8/7/2019JPMorgan Chase & Co.19,000$0.31M0.0%+46.7%0.082%
8/6/2019Wells Fargo & Company MN56,962$0.92M0.0%-69.4%0.247%
8/2/2019Arrow Investment Advisors LLC22,117$0.36M0.1%N/A0.096%
8/1/2019Stephens Inc. AR12,500$0.20M0.0%-7.4%0.054%
7/31/2019Tocqueville Asset Management L.P.20,000$0.32M0.0%N/A0.087%
7/30/2019Lee Financial Co201,704$3.26M0.7%+1.7%0.874%
7/29/2019Kayne Anderson Capital Advisors LP716,200$11.57M0.2%-82.1%3.102%
6/30/2019Steward Partners Investment Advisory LLC14,050$0.23M0.0%N/A0.061%
6/30/2019Trustcore Financial Services LLC23,210$0.38M0.1%+44.5%0.101%
6/30/2019Raymond James Trust N.A.10,343$0.17M0.0%N/A0.045%
6/16/2019FMR LLC1,135,926$20.75M0.0%+0.2%4.920%
5/14/2019Lancaster Investment Management LLP536,385$9.80M3.0%+10.7%2.323%
5/10/2019CIBC Private Wealth Group LLC447,841$8.18M0.0%-26.7%1.939%
5/7/2019Meridian Wealth Advisors LLC23,016$0.42M0.3%+21.0%0.100%
5/7/2019Trustcore Financial Services LLC16,060$0.29M0.1%+42.8%0.070%
5/6/2019Raymond James Financial Services Advisors Inc.28,382$0.52M0.0%-3.1%0.123%
4/30/2019First Republic Investment Management Inc.31,797$0.58M0.0%N/A0.138%
4/1/2019Deutsche Bank AG50,300$0.68M0.0%-59.4%0.166%
2/26/2019FMR LLC1,133,826$15.40M0.0%+3.5%3.743%
2/19/2019Corundum Group Inc.11,291$0.15M0.1%N/A0.037%
2/15/2019Millennium Management LLC37,740$0.51M0.0%-64.0%0.125%
2/14/2019Barclays PLC8,300$0.11M0.0%N/A0.027%
2/14/2019Lancaster Investment Management LLP484,756$6.58M1.8%N/A1.600%
2/13/2019Kayne Anderson Capital Advisors LP4,000,000$54.32M0.8%N/A13.206%
2/11/2019Advisor Group Inc.2,813$38K0.0%+1,025.2%0.009%
2/11/2019Raymond James Financial Services Advisors Inc.29,280$0.40M0.0%+21.6%0.097%
2/11/2019Raymond James & Associates43,933$0.60M0.0%+88.5%0.145%
2/11/2019Stephens Inc. AR13,500$0.18M0.0%-15.1%0.045%
2/5/2019CIBC Private Wealth Group LLC611,139$8.30M0.0%N/A2.018%
1/15/2019SG Capital Management LLC17,352$0.24M0.1%-63.9%0.057%
11/20/2018Morgan Stanley70,516$1.38M0.0%-14.1%0.233%
11/15/2018Luminus Management LLC18,297$0.36M0.0%N/A0.068%
11/15/2018Putnam Investments LLC261,641$5.13M0.0%+92.1%0.975%
11/15/2018Soros Fund Management LLC250,000$4.91M0.1%N/A0.931%
11/13/2018Laurion Capital Management LP100,000$1.96M0.0%N/A0.373%
11/13/2018Renaissance Technologies LLC86,755$1.70M0.0%+71.1%0.323%
11/13/2018Monashee Investment Management LLC93,142$1.83M0.4%N/A0.347%
11/13/2018Virtu Financial LLC14,212$0.28M0.0%N/A0.053%
(Data available from 1/1/2016 forward)
This page was last updated on 6/2/2020 by MarketBeat.com Staff

Enter your email address below to receive a concise daily summary of analysts' upgrades, downgrades and new coverage with MarketBeat.com's FREE daily email newsletter.